createdAt,value
2022-08-14T00:00:45.609Z,22.10
2022-08-14T00:03:21.131Z,22.10
2022-08-14T00:06:01.367Z,21.90
2022-08-14T00:08:44.750Z,22.00
2022-08-14T00:11:14.830Z,21.80
2022-08-14T00:13:52.840Z,21.80
2022-08-14T00:16:41.292Z,21.80
2022-08-14T00:19:19.385Z,21.80
2022-08-14T00:21:53.609Z,21.80
2022-08-14T00:24:29.103Z,21.80
2022-08-14T00:27:02.036Z,21.80
2022-08-14T00:29:39.922Z,21.80
2022-08-14T00:32:50.533Z,21.80
2022-08-14T00:35:01.545Z,21.80
2022-08-14T00:37:32.594Z,21.80
2022-08-14T00:40:02.418Z,21.70
2022-08-14T00:42:55.725Z,21.70
2022-08-14T00:45:30.465Z,21.60
2022-08-14T00:48:00.390Z,21.70
2022-08-14T00:50:31.311Z,21.70
2022-08-14T00:53:03.295Z,21.70
2022-08-14T00:55:32.887Z,21.70
2022-08-14T00:58:32.406Z,21.70
2022-08-14T01:01:03.806Z,21.70
2022-08-14T01:03:39.767Z,21.70
2022-08-14T01:06:14.346Z,21.70
2022-08-14T01:08:52.362Z,21.70
2022-08-14T01:11:31.685Z,21.70
2022-08-14T01:14:25.382Z,21.80
2022-08-14T01:16:55.882Z,21.80
2022-08-14T01:19:43.500Z,21.80
2022-08-14T01:22:18.925Z,21.80
2022-08-14T01:24:48.669Z,21.90
2022-08-14T01:27:24.466Z,21.90
2022-08-14T01:30:00.719Z,21.90
2022-08-14T01:32:37.444Z,21.80
2022-08-14T01:35:19.688Z,21.80
2022-08-14T01:37:59.405Z,21.80
2022-08-14T01:40:33.132Z,21.70
2022-08-14T01:43:15.933Z,21.70
2022-08-14T01:46:06.046Z,21.70
2022-08-14T01:48:37.197Z,21.60
2022-08-14T01:51:20.121Z,21.60
2022-08-14T01:53:55.702Z,21.60
2022-08-14T01:56:36.938Z,21.50
2022-08-14T01:59:10.006Z,21.50
2022-08-14T02:01:58.209Z,21.50
2022-08-14T02:04:56.237Z,21.40
2022-08-14T02:07:34.211Z,21.40
2022-08-14T02:10:15.596Z,21.30
2022-08-14T02:12:49.029Z,21.40
2022-08-14T02:15:23.702Z,21.30
2022-08-14T02:17:52.835Z,21.30
2022-08-14T02:20:23.614Z,21.30
2022-08-14T02:22:54.911Z,21.30
2022-08-14T02:25:29.911Z,21.30
2022-08-14T02:28:25.074Z,21.30
2022-08-14T02:30:52.700Z,21.30
2022-08-14T02:33:23.459Z,21.30
2022-08-14T02:35:53.372Z,21.20
2022-08-14T02:38:34.167Z,21.20
2022-08-14T02:41:08.994Z,21.20
2022-08-14T02:43:46.257Z,21.20
2022-08-14T02:46:20.457Z,21.20
2022-08-14T02:49:04.443Z,21.30
2022-08-14T02:51:36.623Z,21.30
2022-08-14T02:54:07.508Z,21.10
2022-08-14T02:57:13.834Z,21.10
2022-08-14T02:59:33.829Z,21.10
2022-08-14T03:02:04.625Z,21.10
2022-08-14T03:04:34.784Z,21.10
2022-08-14T03:07:08.113Z,21.10
2022-08-14T03:09:42.164Z,21.10
2022-08-14T03:12:32.901Z,21.00
2022-08-14T03:15:06.480Z,20.90
2022-08-14T03:17:41.208Z,21.00
2022-08-14T03:20:26.017Z,20.90
2022-08-14T03:22:56.283Z,20.80
2022-08-14T03:25:25.247Z,20.80
2022-08-14T03:27:58.483Z,20.80
2022-08-14T03:30:37.122Z,20.80
2022-08-14T03:33:11.085Z,20.80
2022-08-14T03:36:05.413Z,20.70
2022-08-14T03:39:16.159Z,20.70
2022-08-14T03:41:23.605Z,20.70
2022-08-14T03:43:57.737Z,20.70
2022-08-14T03:46:38.919Z,20.70
2022-08-14T03:49:29.347Z,20.70
2022-08-14T03:52:00.671Z,20.80
2022-08-14T03:54:31.273Z,20.80
2022-08-14T03:57:02.728Z,20.80
2022-08-14T03:59:35.398Z,20.70
2022-08-14T04:02:31.801Z,20.80
2022-08-14T04:04:54.823Z,20.70
2022-08-14T04:07:23.951Z,20.80
2022-08-14T04:09:53.786Z,20.80
2022-08-14T04:12:26.362Z,20.80
2022-08-14T04:14:57.562Z,20.80
2022-08-14T04:17:29.659Z,20.80
2022-08-14T04:20:06.998Z,20.80
2022-08-14T04:22:39.284Z,20.80
2022-08-14T04:25:11.158Z,20.80
2022-08-14T04:28:01.738Z,20.90
2022-08-14T04:30:33.009Z,20.90
2022-08-14T04:33:07.375Z,20.90
2022-08-14T04:35:56.886Z,20.90
2022-08-14T04:38:47.103Z,20.80
2022-08-14T04:41:48.505Z,20.90
2022-08-14T04:44:36.332Z,21.00
2022-08-14T04:47:25.370Z,21.10
2022-08-14T04:49:59.954Z,21.10
2022-08-14T04:52:32.685Z,21.10
2022-08-14T04:55:08.475Z,21.20
2022-08-14T04:57:39.475Z,21.20
2022-08-14T05:00:16.263Z,21.20
2022-08-14T05:02:48.710Z,21.20
2022-08-14T05:05:21.098Z,21.30
2022-08-14T05:08:01.291Z,21.20
2022-08-14T05:10:32.326Z,21.30
2022-08-14T05:13:13.260Z,21.40
2022-08-14T05:15:45.038Z,21.40
2022-08-14T05:19:17.068Z,21.40
2022-08-14T05:22:00.126Z,21.70
2022-08-14T05:23:59.766Z,22.00
2022-08-14T05:26:28.787Z,22.40
2022-08-14T05:28:57.848Z,22.50
2022-08-14T05:31:39.739Z,22.60
2022-08-14T05:34:11.910Z,22.90
2022-08-14T05:36:40.993Z,22.90
2022-08-14T05:39:10.443Z,22.70
2022-08-14T05:41:53.103Z,22.80
2022-08-14T05:44:26.688Z,22.60
2022-08-14T05:46:58.961Z,22.60
2022-08-14T05:49:33.336Z,22.40
2022-08-14T05:52:03.897Z,22.50
2022-08-14T05:54:39.096Z,22.50
2022-08-14T05:57:08.860Z,22.60
2022-08-14T05:59:40.165Z,22.70
2022-08-14T06:02:11.012Z,22.60
2022-08-14T06:04:49.384Z,22.70
2022-08-14T06:07:18.996Z,22.70
2022-08-14T06:09:52.321Z,22.60
2022-08-14T06:12:55.450Z,22.60
2022-08-14T06:15:11.802Z,22.60
2022-08-14T06:17:55.878Z,22.80
2022-08-14T06:20:30.868Z,22.90
2022-08-14T06:23:00.695Z,23.00
2022-08-14T06:25:31.479Z,23.10
2022-08-14T06:28:02.065Z,23.30
2022-08-14T06:30:46.170Z,23.50
2022-08-14T06:33:18.430Z,23.30
2022-08-14T06:35:50.098Z,23.30
2022-08-14T06:38:21.520Z,23.20
2022-08-14T06:40:53.841Z,23.10
2022-08-14T06:43:27.100Z,23.00
2022-08-14T06:46:00.331Z,23.00
2022-08-14T06:48:29.657Z,23.00
2022-08-14T06:51:03.225Z,23.10
2022-08-14T06:53:32.504Z,23.10
2022-08-14T06:56:02.452Z,23.80
2022-08-14T06:58:32.879Z,24.40
2022-08-14T07:01:26.843Z,24.90
2022-08-14T07:04:21.018Z,25.20
2022-08-14T07:06:55.523Z,25.30
2022-08-14T07:09:28.141Z,25.40
2022-08-14T07:12:09.989Z,25.50
2022-08-14T07:15:01.128Z,25.70
2022-08-14T07:17:32.184Z,26.00
2022-08-14T07:20:03.756Z,26.20
2022-08-14T07:22:56.069Z,26.20
2022-08-14T07:25:32.191Z,26.40
2022-08-14T07:28:03.014Z,26.50
2022-08-14T07:30:33.727Z,26.50
2022-08-14T07:33:04.911Z,26.50
2022-08-14T07:35:43.084Z,26.70
2022-08-14T07:38:32.090Z,26.90
2022-08-14T07:41:12.079Z,27.00
2022-08-14T07:43:47.360Z,26.90
2022-08-14T07:46:29.555Z,26.80
2022-08-14T07:49:00.772Z,26.70
2022-08-14T07:51:34.358Z,26.60
2022-08-14T07:54:11.171Z,26.80
2022-08-14T07:56:46.832Z,26.80
2022-08-14T07:59:20.885Z,26.90
2022-08-14T08:02:18.643Z,26.90
2022-08-14T08:04:54.183Z,27.10
2022-08-14T08:07:29.393Z,27.30
2022-08-14T08:10:46.672Z,27.40
2022-08-14T08:13:17.075Z,27.30
2022-08-14T08:15:47.374Z,27.90
2022-08-14T08:18:20.325Z,28.10
2022-08-14T08:20:59.269Z,28.30
2022-08-14T08:23:39.827Z,28.70
2022-08-14T08:26:14.467Z,28.80
2022-08-14T08:28:44.749Z,28.60
2022-08-14T08:31:14.384Z,28.30
2022-08-14T08:33:49.371Z,28.20
2022-08-14T08:36:19.227Z,28.30
2022-08-14T08:39:18.418Z,28.30
2022-08-14T08:41:49.292Z,28.20
2022-08-14T08:44:33.067Z,28.30
2022-08-14T08:47:06.782Z,28.10
2022-08-14T08:49:43.120Z,27.90
2022-08-14T08:52:25.071Z,27.90
2022-08-14T08:55:00.763Z,27.80
2022-08-14T08:57:37.733Z,27.70
2022-08-14T09:00:24.262Z,27.60
2022-08-14T09:02:57.783Z,27.80
2022-08-14T09:05:29.041Z,28.00
2022-08-14T09:08:26.414Z,28.00
2022-08-14T09:11:19.838Z,27.60
2022-08-14T09:13:54.112Z,27.90
2022-08-14T09:16:26.446Z,27.90
2022-08-14T09:18:56.121Z,27.70
2022-08-14T09:21:31.157Z,28.00
2022-08-14T09:24:28.221Z,27.90
2022-08-14T09:26:50.535Z,27.90
2022-08-14T09:29:23.253Z,27.80
2022-08-14T09:31:57.737Z,27.80
2022-08-14T09:34:58.861Z,27.90
2022-08-14T09:37:39.018Z,27.70
2022-08-14T09:40:20.756Z,27.20
2022-08-14T09:42:59.568Z,27.00
2022-08-14T09:45:40.002Z,26.90
2022-08-14T09:48:27.989Z,27.00
2022-08-14T09:54:18.610Z,27.10
2022-08-14T09:56:30.352Z,27.20
2022-08-14T09:59:15.341Z,27.10
2022-08-14T10:01:52.611Z,26.90
2022-08-14T10:04:34.209Z,27.00
2022-08-14T10:07:08.105Z,27.00
2022-08-14T10:10:00.202Z,26.90
2022-08-14T10:12:53.076Z,26.60
2022-08-14T10:15:29.839Z,26.70
2022-08-14T10:18:17.253Z,26.70
2022-08-14T10:20:55.465Z,26.80
2022-08-14T10:23:26.558Z,27.10
2022-08-14T10:26:05.364Z,26.80
2022-08-14T10:29:17.671Z,26.90
2022-08-14T10:31:43.144Z,26.70
2022-08-14T10:34:35.503Z,26.70
2022-08-14T10:37:14.160Z,26.90
2022-08-14T10:39:51.225Z,27.10
2022-08-14T10:42:39.113Z,27.00
2022-08-14T10:45:21.653Z,27.10
2022-08-14T10:48:07.546Z,27.70
2022-08-14T10:50:50.627Z,27.80
2022-08-14T10:53:39.110Z,28.00
2022-08-14T10:56:21.348Z,28.30
2022-08-14T10:59:03.981Z,28.20
2022-08-14T11:01:40.831Z,28.10
2022-08-14T11:04:25.055Z,28.10
2022-08-14T11:06:57.274Z,28.40
2022-08-14T11:09:31.285Z,28.50
2022-08-14T11:12:34.071Z,28.10
2022-08-14T11:14:59.263Z,27.80
2022-08-14T11:17:33.147Z,27.90
2022-08-14T11:20:05.524Z,27.90
2022-08-14T11:22:55.461Z,28.20
2022-08-14T11:25:36.840Z,28.10
2022-08-14T11:28:19.000Z,28.10
2022-08-14T11:30:53.881Z,27.90
2022-08-14T11:33:25.720Z,27.90
2022-08-14T11:35:59.514Z,27.80
2022-08-14T11:38:37.815Z,27.60
2022-08-14T11:41:07.660Z,27.70
2022-08-14T11:43:42.409Z,27.90
2022-08-14T11:46:36.219Z,27.70
2022-08-14T11:49:09.637Z,27.90
2022-08-14T11:51:52.972Z,28.00
2022-08-14T11:54:35.041Z,28.10
2022-08-14T11:57:06.010Z,28.20
2022-08-14T11:59:35.242Z,28.10
2022-08-14T12:02:39.014Z,28.30
2022-08-14T12:05:04.673Z,28.10
2022-08-14T12:07:49.190Z,28.10
2022-08-14T12:10:26.857Z,28.20
2022-08-14T12:13:14.336Z,28.60
2022-08-14T12:15:51.529Z,28.80
2022-08-14T12:18:32.728Z,28.80
2022-08-14T12:21:15.777Z,28.90
2022-08-14T12:23:50.547Z,29.30
2022-08-14T12:26:38.809Z,29.30
2022-08-14T12:29:13.203Z,29.40
2022-08-14T12:31:47.037Z,29.30
2022-08-14T12:34:20.291Z,29.20
2022-08-14T12:37:03.486Z,29.50
2022-08-14T12:39:39.527Z,29.80
2022-08-14T12:42:11.784Z,29.90
2022-08-14T12:45:03.985Z,29.80
2022-08-14T12:47:33.513Z,29.50
2022-08-14T12:50:04.087Z,29.40
2022-08-14T12:52:43.187Z,29.30
2022-08-14T12:55:44.187Z,29.00
2022-08-14T12:58:35.196Z,29.00
2022-08-14T13:01:16.831Z,29.00
2022-08-14T13:03:48.282Z,28.90
2022-08-14T13:06:24.157Z,28.70
2022-08-14T13:08:59.991Z,28.80
2022-08-14T13:11:41.367Z,28.50
2022-08-14T13:14:18.437Z,28.30
2022-08-14T13:16:51.889Z,28.30
2022-08-14T13:19:28.522Z,28.40
2022-08-14T13:22:09.936Z,28.50
2022-08-14T13:24:40.770Z,28.60
2022-08-14T13:27:11.283Z,28.70
2022-08-14T13:29:47.149Z,28.80
2022-08-14T13:32:16.862Z,28.60
2022-08-14T13:34:48.938Z,28.40
2022-08-14T13:37:22.826Z,28.50
2022-08-14T13:39:56.970Z,28.60
2022-08-14T13:42:30.897Z,28.70
2022-08-14T13:45:04.637Z,28.90
2022-08-14T13:47:36.048Z,28.90
2022-08-14T13:50:08.508Z,28.90
2022-08-14T13:52:52.173Z,29.10
2022-08-14T13:55:25.650Z,29.20
2022-08-14T13:58:03.574Z,29.30
2022-08-14T14:00:53.480Z,29.50
2022-08-14T14:03:30.383Z,29.40
2022-08-14T14:06:03.809Z,29.30
2022-08-14T14:08:46.138Z,29.10
2022-08-14T14:11:19.684Z,29.10
2022-08-14T14:13:49.862Z,29.40
2022-08-14T14:16:26.323Z,29.60
2022-08-14T14:19:10.544Z,29.70
2022-08-14T14:21:41.991Z,29.80
2022-08-14T14:24:15.556Z,30.00
2022-08-14T14:26:50.143Z,30.00
2022-08-14T14:29:25.909Z,29.80
2022-08-14T14:32:00.340Z,29.90
2022-08-14T14:34:34.319Z,29.80
2022-08-14T14:37:06.081Z,29.80
2022-08-14T14:39:38.071Z,29.90
2022-08-14T14:42:31.597Z,29.90
2022-08-14T14:45:07.725Z,29.60
2022-08-14T14:47:39.670Z,29.60
2022-08-14T14:50:11.433Z,29.70
2022-08-14T14:52:42.186Z,29.70
2022-08-14T14:55:13.864Z,29.70
2022-08-14T14:57:52.234Z,29.50
2022-08-14T15:00:24.242Z,29.50
2022-08-14T15:03:01.440Z,29.50
2022-08-14T15:05:30.803Z,29.70
2022-08-14T15:08:02.291Z,29.60
2022-08-14T15:10:35.343Z,29.60
2022-08-14T15:13:08.263Z,29.70
2022-08-14T15:15:39.679Z,29.60
2022-08-14T15:18:36.312Z,29.60
2022-08-14T15:21:02.797Z,29.50
2022-08-14T15:23:44.205Z,29.40
2022-08-14T15:26:24.389Z,29.40
2022-08-14T15:29:05.223Z,29.50
2022-08-14T15:31:37.129Z,29.40
2022-08-14T15:34:44.468Z,29.50
2022-08-14T15:37:06.230Z,29.60
2022-08-14T15:39:41.324Z,29.80
2022-08-14T15:42:14.838Z,29.80
2022-08-14T15:44:57.286Z,29.80
2022-08-14T15:47:29.940Z,29.80
2022-08-14T15:50:01.767Z,29.80
2022-08-14T15:52:35.120Z,29.70
2022-08-14T15:55:09.253Z,29.60
2022-08-14T15:57:38.741Z,29.60
2022-08-14T16:00:43.974Z,29.60
2022-08-14T16:03:25.358Z,29.60
2022-08-14T16:06:11.162Z,29.70
2022-08-14T16:08:52.275Z,29.60
2022-08-14T16:11:32.611Z,29.40
2022-08-14T16:14:02.458Z,29.20
2022-08-14T16:16:51.475Z,29.20
2022-08-14T16:19:27.345Z,29.20
2022-08-14T16:22:57.651Z,29.20
2022-08-14T16:25:02.041Z,29.10
2022-08-14T16:27:41.053Z,29.00
2022-08-14T16:30:24.664Z,28.80
2022-08-14T16:32:56.709Z,28.80
2022-08-14T16:35:42.386Z,28.70
2022-08-14T16:41:22.883Z,28.70
2022-08-14T16:43:59.197Z,28.60
2022-08-14T16:46:32.889Z,28.40
2022-08-14T16:49:02.833Z,28.40
2022-08-14T16:51:36.201Z,28.20
2022-08-14T16:54:33.769Z,28.10
2022-08-14T16:57:16.366Z,28.10
2022-08-14T16:59:51.807Z,28.00
2022-08-14T17:02:39.025Z,28.10
2022-08-14T17:05:21.890Z,28.20
2022-08-14T17:08:31.966Z,28.20
2022-08-14T17:11:11.116Z,28.20
2022-08-14T17:13:58.229Z,28.20
2022-08-14T17:16:37.451Z,28.20
2022-08-14T17:19:09.643Z,28.10
2022-08-14T17:21:42.897Z,28.10
2022-08-14T17:24:56.697Z,28.10
2022-08-14T17:27:10.325Z,28.00
2022-08-14T17:29:54.456Z,28.00
2022-08-14T17:32:56.671Z,28.10
2022-08-14T17:35:38.889Z,28.10
2022-08-14T17:38:38.621Z,28.00
2022-08-14T17:41:33.045Z,27.80
2022-08-14T17:44:21.501Z,27.70
2022-08-14T17:46:55.020Z,27.70
2022-08-14T17:49:32.145Z,27.70
2022-08-14T17:52:16.722Z,27.60
2022-08-14T17:54:52.632Z,27.60
2022-08-14T17:57:29.675Z,27.70
2022-08-14T18:00:09.141Z,27.60
2022-08-14T18:02:51.344Z,27.50
2022-08-14T18:05:23.051Z,27.40
2022-08-14T18:08:32.484Z,27.30
2022-08-14T18:10:54.909Z,27.30
2022-08-14T18:13:51.014Z,27.30
2022-08-14T18:16:19.651Z,27.20
2022-08-14T18:18:51.154Z,26.80
2022-08-14T18:21:40.263Z,26.40
2022-08-14T18:24:28.329Z,26.10
2022-08-14T18:27:06.877Z,25.80
2022-08-14T18:32:47.556Z,25.20
2022-08-14T18:35:46.229Z,24.80
2022-08-14T18:38:26.232Z,24.10
2022-08-14T18:41:36.757Z,23.70
2022-08-14T18:44:10.623Z,23.50
2022-08-14T18:47:21.137Z,23.40
2022-08-14T18:50:27.211Z,23.50
2022-08-14T18:53:07.411Z,23.60
2022-08-14T18:55:53.950Z,23.60
2022-08-14T18:58:31.319Z,23.60
2022-08-14T19:01:06.185Z,23.50
2022-08-14T19:03:59.961Z,23.40
2022-08-14T19:06:56.278Z,23.40
2022-08-14T19:09:58.311Z,23.30
2022-08-14T19:13:05.089Z,23.10
2022-08-14T19:15:44.483Z,22.90
2022-08-14T19:18:25.835Z,22.90
2022-08-14T19:20:58.263Z,22.90
2022-08-14T19:23:42.732Z,22.90
2022-08-14T19:26:36.173Z,22.90
2022-08-14T19:29:38.000Z,22.90
2022-08-14T19:32:40.209Z,22.90
2022-08-14T19:35:55.828Z,23.00
2022-08-14T19:38:59.887Z,23.00
2022-08-14T19:41:34.040Z,23.00
2022-08-14T19:44:11.804Z,23.20
2022-08-14T19:47:02.723Z,23.20
2022-08-14T19:50:30.243Z,23.30
2022-08-14T19:52:26.444Z,23.30
2022-08-14T19:55:01.922Z,23.30
2022-08-14T19:57:33.415Z,23.30
2022-08-14T20:00:28.013Z,23.30
2022-08-14T20:03:10.706Z,23.30
2022-08-14T20:05:42.934Z,23.30
2022-08-14T20:10:58.425Z,23.30
2022-08-14T20:11:19.092Z,23.20
2022-08-14T20:14:01.672Z,23.20
2022-08-14T20:16:51.046Z,23.20
2022-08-14T20:19:24.912Z,23.10
2022-08-14T20:22:04.646Z,23.10
2022-08-14T20:24:50.028Z,23.10
2022-08-14T20:27:34.090Z,23.10
2022-08-14T20:30:29.883Z,23.10
2022-08-14T20:33:07.732Z,23.10
2022-08-14T20:35:44.140Z,23.10
2022-08-14T20:38:29.477Z,23.10
2022-08-14T20:41:06.552Z,23.10
2022-08-14T20:43:59.433Z,23.10
2022-08-14T20:46:31.857Z,23.00
2022-08-14T20:49:03.246Z,23.10
2022-08-14T20:51:37.449Z,23.10
2022-08-14T20:54:09.255Z,23.00
2022-08-14T20:56:40.723Z,23.00
2022-08-14T20:59:20.387Z,23.00
2022-08-14T21:01:55.369Z,22.90
2022-08-14T21:04:28.601Z,23.00
2022-08-14T21:07:26.099Z,23.00
2022-08-14T21:10:06.132Z,23.00
2022-08-14T21:13:13.951Z,23.00
2022-08-14T21:15:43.608Z,23.00
2022-08-14T21:18:32.941Z,23.00
2022-08-14T21:21:07.612Z,22.90
2022-08-14T21:23:54.319Z,23.00
2022-08-14T21:26:50.430Z,23.00
2022-08-14T21:29:15.568Z,22.90
2022-08-14T21:31:51.099Z,23.00
2022-08-14T21:34:32.349Z,22.80
2022-08-14T21:37:09.971Z,22.70
2022-08-14T21:39:39.676Z,22.70
2022-08-14T21:42:10.864Z,22.70
2022-08-14T21:44:43.726Z,22.70
2022-08-14T21:47:16.067Z,22.70
2022-08-14T21:49:48.241Z,22.60
2022-08-14T21:52:51.313Z,22.50
2022-08-14T21:55:13.821Z,22.50
2022-08-14T21:57:55.801Z,22.50
2022-08-14T22:00:42.131Z,22.50
2022-08-14T22:03:13.817Z,22.40
2022-08-14T22:05:45.823Z,22.30
2022-08-14T22:08:16.080Z,22.40
2022-08-14T22:10:47.772Z,22.30
2022-08-14T22:13:24.790Z,22.30
2022-08-14T22:15:59.563Z,22.30
2022-08-14T22:18:31.452Z,22.30
2022-08-14T22:21:05.790Z,22.40
2022-08-14T22:23:35.908Z,22.30
2022-08-14T22:26:06.520Z,22.20
2022-08-14T22:28:35.878Z,22.20
2022-08-14T22:31:10.270Z,22.20
2022-08-14T22:33:43.022Z,22.10
2022-08-14T22:36:33.880Z,22.10
2022-08-14T22:39:11.355Z,22.10
2022-08-14T22:41:43.313Z,22.10
2022-08-14T22:44:16.013Z,22.10
2022-08-14T22:46:45.542Z,22.10
2022-08-14T22:50:28.577Z,22.10
2022-08-14T22:52:33.029Z,22.10
2022-08-14T22:54:58.700Z,22.10
2022-08-14T22:57:37.879Z,22.00
2022-08-14T23:00:16.238Z,22.00
2022-08-14T23:02:46.957Z,21.90
2022-08-14T23:05:39.037Z,21.90
2022-08-14T23:08:56.115Z,21.80
2022-08-14T23:11:06.589Z,21.80
2022-08-14T23:13:36.336Z,21.80
2022-08-14T23:16:09.517Z,21.70
2022-08-14T23:18:39.218Z,21.80
2022-08-14T23:21:11.172Z,21.80
2022-08-14T23:23:43.405Z,21.80
2022-08-14T23:26:48.386Z,21.80
2022-08-14T23:29:01.953Z,21.70
2022-08-14T23:31:35.810Z,21.70
2022-08-14T23:34:08.123Z,21.70
2022-08-14T23:36:53.376Z,21.70
2022-08-14T23:39:30.355Z,21.70
2022-08-14T23:42:04.212Z,21.70
2022-08-14T23:44:37.084Z,21.70
2022-08-14T23:47:10.949Z,21.70
2022-08-14T23:50:00.243Z,21.70
2022-08-14T23:52:50.916Z,21.70
2022-08-14T23:55:30.380Z,21.70
2022-08-14T23:58:00.694Z,21.70
